Time;durP1;ratioP1;P1;durP2;ratioP2;P2;SDS_P1;SDS_P2;PMS_P1;PMS_P2;Temp;Humidity;BMP_temperature;BMP_pressure;BME280_temperature;BME280_humidity;BME280_pressure;Samples;Min_cycle;Max_cycle;Signal;HPM_P1;HPM_P2
2022/01/09 00:00:10;;;;;;;18.13;3.55;;;;;;;2.06;100.00;99651.06;5098683;27;20054;-77
2022/01/09 00:02:35;;;;;;;17.33;3.00;;;;;;;2.05;100.00;99654.06;5086110;28;20027;-78
2022/01/09 00:05:01;;;;;;;17.95;3.67;;;;;;;2.01;100.00;99656.50;5054953;28;20514;-77
2022/01/09 00:07:27;;;;;;;20.00;2.97;;;;;;;2.00;100.00;99658.41;5094074;28;20032;-78
2022/01/09 00:09:52;;;;;;;14.77;2.95;;;;;;;1.99;100.00;99673.19;5099119;28;20073;-78
2022/01/09 00:12:18;;;;;;;16.42;3.25;;;;;;;1.97;100.00;99663.56;5103254;28;20468;-78
2022/01/09 00:14:43;;;;;;;22.65;3.00;;;;;;;1.92;100.00;99661.63;5085356;27;20019;-78
2022/01/09 00:17:09;;;;;;;21.95;3.35;;;;;;;1.92;100.00;99667.09;5126609;27;20040;-77
2022/01/09 00:19:34;;;;;;;23.38;3.88;;;;;;;1.90;100.00;99661.06;5112288;27;20080;-78
2022/01/09 00:22:00;;;;;;;17.42;3.03;;;;;;;1.85;100.00;99658.25;5101310;27;20024;-78
2022/01/09 00:24:25;;;;;;;24.17;3.17;;;;;;;1.84;100.00;99648.41;5097806;28;20039;-78
2022/01/09 00:26:51;;;;;;;18.60;2.97;;;;;;;1.83;100.00;99657.66;5094028;28;20035;-78
2022/01/09 00:29:16;;;;;;;18.58;3.28;;;;;;;1.84;100.00;99655.75;5109352;27;20033;-78
2022/01/09 00:31:42;;;;;;;16.38;3.10;;;;;;;1.85;100.00;99671.94;5084363;27;20051;-78
2022/01/09 00:34:07;;;;;;;19.92;3.50;;;;;;;1.83;100.00;99668.63;5111189;28;20023;-78
2022/01/09 00:36:33;;;;;;;22.88;3.13;;;;;;;1.83;100.00;99668.63;5108202;27;20046;-78
2022/01/09 00:38:58;;;;;;;16.70;3.03;;;;;;;1.82;100.00;99671.63;5087722;28;20031;-78
2022/01/09 00:41:24;;;;;;;17.13;2.50;;;;;;;1.79;100.00;99672.97;5064584;28;20024;-77
2022/01/09 00:43:50;;;;;;;13.82;2.85;;;;;;;1.78;100.00;99672.16;5113538;27;20027;-78
2022/01/09 00:46:16;;;;;;;20.52;3.08;;;;;;;1.79;100.00;99664.75;5133738;27;20027;-78
2022/01/09 00:48:42;;;;;;;22.88;3.15;;;;;;;1.76;100.00;99660.63;5112655;27;20039;-78
2022/01/09 00:51:07;;;;;;;24.58;3.22;;;;;;;1.75;100.00;99667.16;5082732;27;20030;-78
2022/01/09 00:53:33;;;;;;;17.75;2.63;;;;;;;1.77;100.00;99672.41;5122402;27;20106;-78
2022/01/09 00:55:59;;;;;;;17.48;2.53;;;;;;;1.74;100.00;99676.47;5113787;27;20023;-78
2022/01/09 00:58:24;;;;;;;22.55;3.83;;;;;;;1.75;100.00;99671.81;5097299;27;20027;-78
2022/01/09 01:00:50;;;;;;;17.95;2.83;;;;;;;1.74;100.00;99684.69;5100586;27;20035;-78
2022/01/09 01:03:15;;;;;;;20.40;2.70;;;;;;;1.78;100.00;99679.50;5129754;27;20026;-77
2022/01/09 01:05:41;;;;;;;23.80;3.55;;;;;;;1.77;100.00;99688.81;5117605;27;20035;-78
2022/01/09 01:08:07;;;;;;;29.27;3.35;;;;;;;1.78;100.00;99699.53;5114642;27;20031;-78
2022/01/09 01:10:32;;;;;;;20.42;2.83;;;;;;;1.79;100.00;99703.09;5096305;27;20124;-78
2022/01/09 01:12:58;;;;;;;21.83;3.45;;;;;;;1.79;100.00;99708.56;5081402;28;20111;-78
2022/01/09 01:15:23;;;;;;;14.13;2.03;;;;;;;1.82;100.00;99704.50;5093017;27;20490;-78
2022/01/09 01:17:49;;;;;;;21.98;3.53;;;;;;;1.79;100.00;99722.25;5113038;27;20043;-78
2022/01/09 01:20:19;;;;;;;19.48;2.67;;;;;;;1.78;100.00;99726.91;5115160;27;20027;-78
2022/01/09 01:22:45;;;;;;;23.45;3.58;;;;;;;1.81;100.00;99730.19;5080086;27;20020;-78
2022/01/09 01:25:11;;;;;;;20.63;3.00;;;;;;;1.82;100.00;99729.97;5115939;27;20028;-78
2022/01/09 01:27:36;;;;;;;16.52;2.75;;;;;;;1.82;100.00;99732.69;5098619;27;20114;-78
2022/01/09 01:30:03;;;;;;;12.70;2.67;;;;;;;1.84;100.00;99729.69;5132061;27;20057;-78
2022/01/09 01:32:28;;;;;;;15.75;2.55;;;;;;;1.81;100.00;99725.53;5113010;27;20151;-78
2022/01/09 01:34:54;;;;;;;13.77;2.72;;;;;;;1.83;100.00;99728.03;5083050;28;20049;-78
2022/01/09 01:37:19;;;;;;;21.17;2.72;;;;;;;1.81;100.00;99728.28;5108201;28;20032;-78
2022/01/09 01:39:45;;;;;;;13.77;2.85;;;;;;;1.85;100.00;99731.34;5114480;27;20020;-78
2022/01/09 01:42:11;;;;;;;19.30;3.28;;;;;;;1.85;100.00;99726.69;5118283;28;20047;-78
2022/01/09 01:44:41;;;;;;;16.67;2.53;;;;;;;1.86;100.00;99727.53;5115286;28;20038;-78
2022/01/09 01:47:06;;;;;;;18.52;2.60;;;;;;;1.86;100.00;99728.34;5080262;28;20388;-78
2022/01/09 01:49:32;;;;;;;19.98;2.30;;;;;;;1.88;100.00;99731.66;5063066;28;20027;-78
2022/01/09 01:51:58;;;;;;;17.27;2.42;;;;;;;1.89;100.00;99741.53;5112816;28;20038;-78
2022/01/09 01:54:25;;;;;;;18.08;2.72;;;;;;;1.90;100.00;99737.72;5066504;28;20051;-78
2022/01/09 01:56:50;;;;;;;19.00;2.72;;;;;;;1.93;100.00;99734.47;5085152;28;20024;-78
2022/01/09 01:59:16;;;;;;;22.08;3.42;;;;;;;1.94;100.00;99738.03;5095072;28;20038;-78
2022/01/09 02:01:41;;;;;;;18.88;2.83;;;;;;;1.97;100.00;99754.78;5094342;28;20039;-78
2022/01/09 02:04:07;;;;;;;18.95;3.97;;;;;;;2.01;100.00;99763.31;5099743;28;20027;-78
2022/01/09 02:06:33;;;;;;;23.00;3.17;;;;;;;2.05;100.00;99763.63;5062166;28;20035;-79
2022/01/09 02:08:59;;;;;;;21.38;2.83;;;;;;;2.08;100.00;99776.81;5110961;28;20031;-78
2022/01/09 02:11:24;;;;;;;23.30;3.65;;;;;;;2.10;100.00;99800.13;5092072;28;20440;-78
2022/01/09 02:13:50;;;;;;;23.58;3.35;;;;;;;2.16;100.00;99790.06;5099743;27;20030;-79
2022/01/09 02:16:19;;;;;;;17.25;3.75;;;;;;;2.18;100.00;99791.47;5117048;27;20076;-78
2022/01/09 02:18:45;;;;;;;18.55;3.05;;;;;;;2.24;100.00;99784.13;5101911;28;20073;-78
2022/01/09 02:21:12;;;;;;;25.80;3.63;;;;;;;2.29;100.00;99795.16;5099827;28;20476;-78
2022/01/09 02:23:40;;;;;;;21.20;3.58;;;;;;;2.35;100.00;99768.63;5084536;27;20045;-78
2022/01/09 02:26:05;;;;;;;25.58;3.25;;;;;;;2.38;100.00;99774.41;5071571;28;20024;-78
2022/01/09 02:28:31;;;;;;;25.85;3.70;;;;;;;2.45;100.00;99782.41;5084399;28;20032;-77
2022/01/09 02:30:56;;;;;;;19.77;2.75;;;;;;;2.48;100.00;99790.16;5091095;28;20070;-78
2022/01/09 02:33:22;;;;;;;23.77;2.97;;;;;;;2.52;100.00;99784.97;5082504;28;20050;-78
2022/01/09 02:35:51;;;;;;;17.48;2.90;;;;;;;2.55;100.00;99774.31;5082134;28;20031;-78
2022/01/09 02:38:17;;;;;;;18.90;3.38;;;;;;;2.58;100.00;99772.97;5090544;27;20065;-77
2022/01/09 02:40:43;;;;;;;23.52;2.58;;;;;;;2.59;100.00;99766.38;5066288;28;20036;-78
2022/01/09 02:43:08;;;;;;;15.77;2.85;;;;;;;2.60;100.00;99773.53;5091715;28;20034;-78
2022/01/09 02:45:34;;;;;;;17.77;2.97;;;;;;;2.63;100.00;99764.78;5101633;28;20036;-77
2022/01/09 02:48:02;;;;;;;18.48;2.40;;;;;;;2.61;100.00;99756.81;5097458;27;20084;-78
2022/01/09 02:50:36;;;;;;;17.45;2.35;;;;;;;2.63;100.00;99748.34;5119062;27;20057;-78
2022/01/09 02:53:12;;;;;;;16.83;2.13;;;;;;;2.62;100.00;99763.97;5081303;28;20041;-78
2022/01/09 02:55:38;;;;;;;14.25;2.80;;;;;;;2.63;100.00;99764.78;5082135;28;20043;-78
2022/01/09 02:58:03;;;;;;;17.13;2.47;;;;;;;2.63;100.00;99770.28;5067904;27;20421;-78
2022/01/09 03:00:33;;;;;;;11.55;2.10;;;;;;;2.66;100.00;99764.25;5068833;28;20023;-78
2022/01/09 03:02:59;;;;;;;15.93;3.05;;;;;;;2.59;100.00;99753.53;5116473;27;20040;-78
2022/01/09 03:05:25;;;;;;;13.07;2.70;;;;;;;2.62;100.00;99763.16;5085745;28;20122;-78
2022/01/09 03:07:50;;;;;;;16.45;2.55;;;;;;;2.61;100.00;99765.03;5094598;28;20083;-78
2022/01/09 03:10:18;;;;;;;12.10;1.98;;;;;;;2.54;100.00;99766.34;5100060;28;20038;-78
2022/01/09 03:12:44;;;;;;;15.52;2.42;;;;;;;2.54;100.00;99755.41;5096803;28;20038;-78
2022/01/09 03:15:10;;;;;;;14.80;2.25;;;;;;;2.52;100.00;99769.34;5083600;28;20499;-78
2022/01/09 03:17:35;;;;;;;13.88;2.03;;;;;;;2.49;100.00;99764.38;5087768;28;20042;-78
2022/01/09 03:20:01;;;;;;;16.17;2.63;;;;;;;2.47;100.00;99766.53;5077792;28;20023;-78
2022/01/09 03:22:26;;;;;;;15.95;2.60;;;;;;;2.44;100.00;99765.16;5067627;28;20057;-78
2022/01/09 03:24:52;;;;;;;15.40;2.45;;;;;;;2.46;100.00;99762.16;5083406;28;20032;-78
2022/01/09 03:27:18;;;;;;;14.00;1.73;;;;;;;2.44;100.00;99762.41;5083023;28;20020;-78
2022/01/09 03:29:44;;;;;;;14.05;2.42;;;;;;;2.43;100.00;99770.91;5081012;28;20031;-78
2022/01/09 03:32:09;;;;;;;15.55;2.50;;;;;;;2.43;100.00;99766.25;5093130;28;20055;-78
2022/01/09 03:34:35;;;;;;;11.18;2.50;;;;;;;2.46;100.00;99771.19;5115327;27;20023;-78
2022/01/09 03:37:00;;;;;;;12.40;2.17;;;;;;;2.43;100.00;99766.25;5099494;27;20030;-78
2022/01/09 03:39:26;;;;;;;13.60;2.20;;;;;;;2.44;100.00;99767.88;5133085;27;20027;-78
2022/01/09 03:41:54;;;;;;;17.70;2.85;;;;;;;2.45;100.00;99765.97;5098178;27;20034;-78
2022/01/09 03:44:20;;;;;;;9.02;2.28;;;;;;;2.48;100.00;99760.00;5118823;27;20510;-82
2022/01/09 03:46:45;;;;;;;13.05;2.50;;;;;;;2.49;100.00;99758.91;5087367;28;20027;-78
2022/01/09 03:49:11;;;;;;;15.02;2.15;;;;;;;2.52;100.00;99760.31;5096861;27;20038;-78
2022/01/09 03:51:38;;;;;;;16.83;2.70;;;;;;;2.54;100.00;99758.13;5107566;27;20080;-78
2022/01/09 03:54:04;;;;;;;17.80;2.80;;;;;;;2.56;100.00;99764.16;5085128;27;20037;-78
2022/01/09 03:56:30;;;;;;;18.30;2.38;;;;;;;2.59;100.00;99769.13;5114758;27;20031;-78
2022/01/09 03:58:55;;;;;;;10.63;2.10;;;;;;;2.60;100.00;99768.88;5100629;27;20051;-78
2022/01/09 04:01:21;;;;;;;16.17;2.13;;;;;;;2.62;100.00;99763.16;5110013;28;20456;-78
2022/01/09 04:03:46;;;;;;;15.88;2.78;;;;;;;2.63;100.00;99760.13;5098729;27;20034;-76
2022/01/09 04:06:12;;;;;;;16.80;4.00;;;;;;;2.65;100.00;99766.19;5118489;27;20054;-78
2022/01/09 04:08:38;;;;;;;13.68;2.28;;;;;;;2.68;100.00;99760.19;5081318;28;20383;-78
2022/01/09 04:11:04;;;;;;;12.48;2.80;;;;;;;2.68;100.00;99757.44;5102878;27;20027;-78
2022/01/09 04:13:30;;;;;;;12.93;2.55;;;;;;;2.71;100.00;99755.28;5080234;27;20076;-78
2022/01/09 04:15:55;;;;;;;11.82;2.60;;;;;;;2.73;100.00;99742.09;5111395;27;20106;-78
2022/01/09 04:18:22;;;;;;;11.57;2.55;;;;;;;2.74;100.00;99749.25;5101224;27;20031;-78
2022/01/09 04:20:48;;;;;;;14.90;2.65;;;;;;;2.76;100.00;99755.28;5090799;28;20028;-78
2022/01/09 04:23:13;;;;;;;17.58;3.08;;;;;;;2.77;100.00;99771.50;5080542;27;20019;-78
2022/01/09 04:25:39;;;;;;;11.57;2.42;;;;;;;2.77;100.00;99776.97;5102371;27;20031;-78
2022/01/09 04:28:05;;;;;;;12.73;2.85;;;;;;;2.78;100.00;99777.81;5099516;27;20027;-78
2022/01/09 04:30:30;;;;;;;15.07;2.63;;;;;;;2.77;100.00;99776.16;5131445;27;20492;-78
2022/01/09 04:32:56;;;;;;;10.65;2.50;;;;;;;2.77;100.00;99759.72;5069533;28;20405;-78
2022/01/09 04:35:22;;;;;;;14.15;2.35;;;;;;;2.75;100.00;99750.91;5087373;27;20042;-78
2022/01/09 04:37:48;;;;;;;7.38;1.70;;;;;;;2.73;100.00;99753.94;5088280;27;20045;-78
2022/01/09 04:40:15;;;;;;;12.55;2.67;;;;;;;2.69;100.00;99763.75;5064777;28;20016;-78
2022/01/09 04:42:44;;;;;;;9.90;2.15;;;;;;;2.69;100.00;99781.00;5082680;28;20439;-78
2022/01/09 04:45:11;;;;;;;12.85;2.47;;;;;;;2.67;100.00;99777.72;5082280;28;20035;-78
2022/01/09 04:47:40;;;;;;;10.05;2.40;;;;;;;2.64;100.00;99766.44;5094627;28;20036;-78
2022/01/09 04:50:07;;;;;;;18.13;3.50;;;;;;;2.66;100.00;99769.75;5102192;27;20106;-78
2022/01/09 04:52:36;;;;;;;13.18;2.30;;;;;;;2.66;100.00;99772.50;5079626;28;20028;-78
2022/01/09 04:55:02;;;;;;;13.32;3.13;;;;;;;2.63;100.00;99770.28;5099872;28;20026;-78
2022/01/09 04:57:28;;;;;;;12.48;2.63;;;;;;;2.60;100.00;99768.88;5076139;28;20028;-78
2022/01/09 04:59:53;;;;;;;14.27;2.90;;;;;;;2.59;100.00;99777.34;5080553;28;20031;-78
2022/01/09 05:02:19;;;;;;;15.85;2.35;;;;;;;2.58;100.00;99771.03;5081779;28;20032;-78
2022/01/09 05:04:44;;;;;;;14.98;2.40;;;;;;;2.57;100.00;99761.19;5099794;27;20061;-78
2022/01/09 05:07:10;;;;;;;11.75;2.08;;;;;;;2.56;100.00;99754.03;5100241;28;20035;-78
2022/01/09 05:09:35;;;;;;;15.35;2.42;;;;;;;2.55;100.00;99746.88;5086408;28;20494;-78
2022/01/09 05:12:01;;;;;;;17.55;2.47;;;;;;;2.48;100.00;99743.56;5081262;28;20403;-78
2022/01/09 05:14:26;;;;;;;12.90;2.58;;;;;;;2.45;100.00;99742.16;5082144;27;20047;-78
2022/01/09 05:16:52;;;;;;;9.70;2.00;;;;;;;2.44;100.00;99737.75;5080772;27;20077;-78
2022/01/09 05:19:20;;;;;;;16.40;2.67;;;;;;;2.43;100.00;99741.56;5098894;28;20020;-78
2022/01/09 05:21:45;;;;;;;12.73;2.40;;;;;;;2.41;100.00;99732.78;5064745;28;20118;-78
2022/01/09 05:24:11;;;;;;;13.52;2.38;;;;;;;2.41;100.00;99719.06;5066529;28;20084;-78
2022/01/09 05:26:36;;;;;;;16.35;2.63;;;;;;;2.40;100.00;99722.09;5066663;28;20028;-77
2022/01/09 05:29:02;;;;;;;15.07;2.70;;;;;;;2.39;100.00;99721.25;5077125;27;20051;-78
2022/01/09 05:31:28;;;;;;;14.73;2.72;;;;;;;2.38;100.00;99722.34;5096620;28;20047;-78
2022/01/09 05:33:53;;;;;;;12.70;2.10;;;;;;;2.31;100.00;99713.50;5075785;28;20036;-78
2022/01/09 05:36:19;;;;;;;18.67;2.65;;;;;;;2.30;100.00;99711.84;5081317;28;20032;-78
2022/01/09 05:38:44;;;;;;;12.48;1.95;;;;;;;2.25;100.00;99717.28;5065779;28;20032;-78
2022/01/09 05:41:10;;;;;;;14.30;2.15;;;;;;;2.23;100.00;99709.31;5071132;28;20034;-78
2022/01/09 05:43:36;;;;;;;7.63;1.73;;;;;;;2.21;100.00;99700.53;5065475;28;20030;-78
2022/01/09 05:46:01;;;;;;;11.55;1.73;;;;;;;2.20;100.00;99698.03;5076679;28;20024;-78
2022/01/09 05:48:27;;;;;;;13.30;2.65;;;;;;;2.19;100.00;99696.38;5078013;28;20028;-78
2022/01/09 05:50:52;;;;;;;10.82;1.90;;;;;;;2.16;100.00;99700.47;5115364;28;20043;-78
2022/01/09 05:53:18;;;;;;;10.57;2.30;;;;;;;2.17;100.00;99713.09;5097775;28;20027;-78
2022/01/09 05:55:43;;;;;;;12.80;2.20;;;;;;;2.17;100.00;99720.47;5080994;28;20023;-78
2022/01/09 05:58:09;;;;;;;15.55;2.17;;;;;;;2.15;100.00;99715.25;5079835;28;20039;-78
2022/01/09 06:00:34;;;;;;;15.52;2.63;;;;;;;2.14;100.00;99719.06;5062977;28;20040;-77
2022/01/09 06:03:00;;;;;;;6.40;1.80;;;;;;;2.10;100.00;99712.47;5102191;28;20076;-78
2022/01/09 06:05:25;;;;;;;16.30;2.33;;;;;;;2.07;100.00;99707.50;5095141;28;20024;-78
2022/01/09 06:07:51;;;;;;;12.55;2.28;;;;;;;2.06;100.00;99715.97;5072014;28;20043;-78
2022/01/09 06:10:17;;;;;;;7.70;1.85;;;;;;;2.06;100.00;99710.50;5095283;28;20027;-78
2022/01/09 06:12:42;;;;;;;11.57;1.75;;;;;;;2.03;100.00;99705.53;5093719;28;20387;-78
2022/01/09 06:15:08;;;;;;;11.93;2.63;;;;;;;2.03;100.00;99709.09;5097294;28;20046;-78
2022/01/09 06:17:38;;;;;;;11.65;2.10;;;;;;;1.96;100.00;99706.56;5074631;28;20028;-78
2022/01/09 06:20:04;;;;;;;13.27;2.10;;;;;;;1.96;100.00;99713.97;5106527;28;20084;-77
2022/01/09 06:22:30;;;;;;;8.82;1.73;;;;;;;1.98;100.00;99715.38;5128305;28;20031;-78
2022/01/09 06:24:55;;;;;;;12.38;1.80;;;;;;;1.98;100.00;99709.88;5099688;28;20633;-78
2022/01/09 06:27:21;;;;;;;9.45;1.70;;;;;;;2.00;100.00;99717.81;5096077;28;20043;-78
2022/01/09 06:29:47;;;;;;;7.10;2.05;;;;;;;2.01;100.00;99709.38;5093462;28;20028;-78
2022/01/09 06:32:12;;;;;;;14.60;2.45;;;;;;;2.04;100.00;99704.47;5081487;28;20054;-78
2022/01/09 06:34:38;;;;;;;13.90;2.22;;;;;;;2.06;100.00;99725.00;5080305;28;20030;-77
2022/01/09 06:37:04;;;;;;;10.45;2.00;;;;;;;2.09;100.00;99721.78;5063946;28;20034;-77
2022/01/09 06:39:29;;;;;;;12.40;2.60;;;;;;;2.11;100.00;99729.72;5120490;28;20028;-78
2022/01/09 06:41:55;;;;;;;13.27;2.45;;;;;;;2.15;100.00;99739.09;5061400;28;20051;-78
2022/01/09 06:44:20;;;;;;;8.20;2.25;;;;;;;2.17;100.00;99740.50;5079213;28;20031;-78
2022/01/09 06:46:46;;;;;;;10.02;1.60;;;;;;;2.21;100.00;99736.16;5061265;28;20380;-78
2022/01/09 06:49:12;;;;;;;13.60;2.00;;;;;;;2.27;100.00;99741.69;5082424;28;20036;-78
2022/01/09 06:51:37;;;;;;;12.32;2.70;;;;;;;2.28;100.00;99741.41;5096187;28;20472;-78
2022/01/09 06:54:03;;;;;;;7.22;1.73;;;;;;;2.33;100.00;99735.97;5117933;28;20476;-77
2022/01/09 06:56:28;;;;;;;13.40;2.05;;;;;;;2.36;100.00;99729.97;5094175;28;20468;-78
2022/01/09 06:58:54;;;;;;;13.35;2.22;;;;;;;2.37;100.00;99720.69;5075805;28;20028;-77
2022/01/09 07:01:19;;;;;;;12.65;2.65;;;;;;;2.39;100.00;99723.16;5101877;28;20089;-79
2022/01/09 07:03:45;;;;;;;13.07;2.22;;;;;;;2.41;100.00;99704.56;5068894;28;20480;-78
2022/01/09 07:06:11;;;;;;;13.00;2.38;;;;;;;2.42;100.00;99709.78;5101338;28;20028;-78
2022/01/09 07:08:36;;;;;;;11.05;2.10;;;;;;;2.44;100.00;99734.19;5100998;28;20034;-78
2022/01/09 07:11:02;;;;;;;12.13;2.30;;;;;;;2.46;100.00;99732.00;5079891;28;20036;-78
2022/01/09 07:13:28;;;;;;;15.75;2.40;;;;;;;2.44;100.00;99724.03;5093261;27;20051;-79
2022/01/09 07:15:54;;;;;;;10.30;1.77;;;;;;;2.50;100.00;99724.09;5085150;28;20434;-78
2022/01/09 07:18:19;;;;;;;10.85;2.17;;;;;;;2.49;100.00;99720.53;5123153;27;20503;-78
2022/01/09 07:20:45;;;;;;;10.07;2.05;;;;;;;2.51;100.00;99729.31;5114084;28;20035;-75
2022/01/09 07:23:10;;;;;;;9.60;1.67;;;;;;;2.50;100.00;99727.66;5084639;28;20133;-76
2022/01/09 07:25:36;;;;;;;14.57;2.53;;;;;;;2.51;100.00;99728.47;5103524;27;20062;-76
2022/01/09 07:28:02;;;;;;;12.13;1.90;;;;;;;2.50;100.00;99729.56;5098878;28;20057;-75
2022/01/09 07:30:28;;;;;;;9.43;1.83;;;;;;;2.51;100.00;99723.00;5115842;27;20052;-75
2022/01/09 07:32:54;;;;;;;10.57;1.80;;;;;;;2.47;100.00;99718.03;5097818;28;20091;-75
2022/01/09 07:35:20;;;;;;;16.77;2.33;;;;;;;2.46;100.00;99721.88;5097617;28;20055;-75
2022/01/09 07:37:45;;;;;;;12.73;1.73;;;;;;;2.47;100.00;99715.28;5090210;28;20073;-75
2022/01/09 07:40:12;;;;;;;14.88;2.38;;;;;;;2.45;100.00;99719.38;5090082;28;20035;-74
2022/01/09 07:42:37;;;;;;;11.13;1.83;;;;;;;2.41;100.00;99726.47;5057542;28;20028;-74
2022/01/09 07:45:06;;;;;;;19.52;2.10;;;;;;;2.37;100.00;99723.44;5089639;28;20106;-74
2022/01/09 07:47:33;;;;;;;13.02;2.17;;;;;;;2.39;100.00;99729.47;5114691;28;20040;-74
2022/01/09 07:49:58;;;;;;;8.90;2.00;;;;;;;2.37;100.00;99722.63;5095070;28;20024;-74
2022/01/09 07:52:24;;;;;;;14.38;2.05;;;;;;;2.37;100.00;99742.63;5116731;28;20031;-74
2022/01/09 07:54:49;;;;;;;12.10;2.20;;;;;;;2.32;100.00;99748.03;5093427;28;20024;-74
2022/01/09 07:57:15;;;;;;;13.88;2.35;;;;;;;2.29;100.00;99745.81;5093503;28;20031;-74
2022/01/09 07:59:40;;;;;;;10.10;1.70;;;;;;;2.21;100.00;99747.09;5097312;28;20383;-74
2022/01/09 08:02:06;;;;;;;10.07;2.15;;;;;;;2.23;100.00;99752.34;5076263;28;20028;-74
2022/01/09 08:04:32;;;;;;;15.50;2.58;;;;;;;2.20;100.00;99750.09;5088646;28;20028;-74
2022/01/09 08:06:57;;;;;;;11.97;2.63;;;;;;;2.20;100.00;99761.03;5113832;28;20389;-74
2022/01/09 08:09:23;;;;;;;12.85;2.60;;;;;;;2.15;100.00;99750.06;5096953;28;20487;-74
2022/01/09 08:11:49;;;;;;;15.07;2.67;;;;;;;2.17;100.00;99753.34;5082172;27;20027;-75
2022/01/09 08:14:14;;;;;;;12.90;1.80;;;;;;;2.17;100.00;99745.13;5081279;28;20032;-73
2022/01/09 08:16:40;;;;;;;13.50;2.17;;;;;;;2.21;100.00;99747.09;5110671;28;20024;-73
2022/01/09 08:19:05;;;;;;;13.32;2.45;;;;;;;2.22;100.00;99756.97;5081602;28;20502;-73
2022/01/09 08:21:31;;;;;;;11.73;1.67;;;;;;;2.18;100.00;99763.25;5113392;28;20038;-73
2022/01/09 08:23:56;;;;;;;13.77;2.40;;;;;;;2.21;100.00;99762.72;5107561;28;20035;-73
2022/01/09 08:26:22;;;;;;;18.15;2.95;;;;;;;2.20;100.00;99761.03;5066198;27;20042;-73
2022/01/09 08:28:48;;;;;;;14.40;3.13;;;;;;;2.22;100.00;99753.41;5104243;27;20028;-73
2022/01/09 08:31:20;;;;;;;16.67;4.32;;;;;;;2.22;100.00;99750.66;5063218;27;20059;-73
2022/01/09 08:33:46;;;;;;;21.03;5.20;;;;;;;2.20;100.00;99747.34;5085944;28;20023;-74
2022/01/09 08:36:11;;;;;;;15.95;4.20;;;;;;;2.22;100.00;99747.94;5092676;28;20028;-74
2022/01/09 08:38:37;;;;;;;20.40;3.97;;;;;;;2.22;100.00;99747.94;5105258;28;20487;-75
2022/01/09 08:41:02;;;;;;;18.83;4.60;;;;;;;2.20;100.00;99747.34;5112390;27;20032;-74
2022/01/09 08:43:28;;;;;;;18.70;3.83;;;;;;;2.17;100.00;99767.91;5114798;27;20058;-75
2022/01/09 08:45:54;;;;;;;17.98;4.80;;;;;;;2.18;100.00;99764.06;5093051;27;20380;-75
2022/01/09 08:48:19;;;;;;;17.25;3.63;;;;;;;2.21;100.00;99751.75;5102185;27;20031;-75
2022/01/09 08:50:45;;;;;;;22.27;4.65;;;;;;;2.17;100.00;99745.97;5111283;27;20472;-75
2022/01/09 08:53:10;;;;;;;17.55;4.65;;;;;;;2.19;100.00;99749.25;5094162;28;20024;-75
2022/01/09 08:55:36;;;;;;;19.67;4.38;;;;;;;2.22;100.00;99750.66;5115861;27;20028;-75
2022/01/09 08:58:02;;;;;;;19.70;4.65;;;;;;;2.26;100.00;99764.66;5114117;27;20043;-75
2022/01/09 09:00:27;;;;;;;16.45;4.68;;;;;;;2.32;100.00;99780.09;5115605;28;20063;-76
2022/01/09 09:02:53;;;;;;;17.02;4.18;;;;;;;2.39;100.00;99775.22;5069979;28;20032;-75
2022/01/09 09:05:19;;;;;;;13.57;3.35;;;;;;;2.46;100.00;99776.69;5080682;28;20027;-75
2022/01/09 09:07:44;;;;;;;20.42;3.50;;;;;;;2.54;100.00;99780.88;5102733;28;20029;-74
2022/01/09 09:10:10;;;;;;;16.15;4.03;;;;;;;2.61;100.00;99789.72;5066452;28;20038;-74
2022/01/09 09:12:36;;;;;;;18.83;3.72;;;;;;;2.67;100.00;99776.88;5102743;28;20043;-78
2022/01/09 09:15:03;;;;;;;14.43;3.40;;;;;;;2.74;100.00;99765.72;5036580;28;20046;-74
2022/01/09 09:17:29;;;;;;;17.90;3.33;;;;;;;2.77;100.00;99776.97;5069143;28;20498;-75
2022/01/09 09:19:55;;;;;;;15.98;3.60;;;;;;;2.82;100.00;99777.03;5106061;28;20106;-74
2022/01/09 09:22:21;;;;;;;15.18;3.15;;;;;;;2.87;100.00;99777.09;5090967;28;20369;-75
2022/01/09 09:24:47;;;;;;;18.75;3.83;;;;;;;2.94;100.00;99776.03;5080454;28;20081;-75
2022/01/09 09:27:12;;;;;;;16.02;3.47;;;;;;;2.98;100.00;99783.47;5090478;28;20709;-74
2022/01/09 09:29:38;;;;;;;18.10;3.67;;;;;;;3.02;100.00;99790.09;5111536;28;20395;-74
2022/01/09 09:32:04;;;;;;;17.30;3.08;;;;;;;3.09;100.00;99779.72;5077901;28;20056;-75
2022/01/09 09:34:29;;;;;;;10.93;3.30;;;;;;;3.16;100.00;99774.00;5078217;28;20039;-74
2022/01/09 09:36:55;;;;;;;11.50;2.70;;;;;;;3.23;100.00;99782.84;5057254;28;20024;-74
2022/01/09 09:39:20;;;;;;;16.20;3.00;;;;;;;3.30;100.00;99791.66;5078041;28;20023;-75
2022/01/09 09:41:46;;;;;;;17.77;3.05;;;;;;;3.38;100.00;99771.16;5078915;28;20028;-74
2022/01/09 09:44:12;;;;;;;13.02;2.60;;;;;;;3.45;100.00;99777.22;5094108;28;20061;-74
2022/01/09 09:46:38;;;;;;;12.30;2.50;;;;;;;3.53;100.00;99773.16;5112191;28;20066;-74
2022/01/09 09:49:03;;;;;;;10.20;2.60;;;;;;;3.62;100.00;99774.28;5053073;28;20438;-75
2022/01/09 09:51:30;;;;;;;16.08;2.70;;;;;;;3.71;100.00;99780.94;5092118;28;20065;-74
2022/01/09 09:53:56;;;;;;;10.88;2.30;;;;;;;3.81;100.00;99791.97;5076655;28;20027;-74
2022/01/09 09:56:21;;;;;;;12.57;2.90;;;;;;;3.91;100.00;99787.63;5097502;28;20032;-75
2022/01/09 09:58:49;;;;;;;15.82;3.05;;;;;;;4.03;100.00;99793.72;5093881;28;20035;-75
2022/01/09 10:01:25;;;;;;;18.08;2.80;;;;;;;4.15;100.00;99799.84;5062301;28;20038;-75
2022/01/09 10:04:00;;;;;;;15.43;3.30;;;;;;;4.24;100.00;99784.47;5102488;28;20030;-75
2022/01/09 10:06:42;;;;;;;21.38;3.55;;;;;;;4.32;100.00;99785.03;5109131;28;20035;-74
2022/01/09 10:09:09;;;;;;;22.05;3.20;;;;;;;4.45;100.00;99781.78;5096845;28;20069;-74
2022/01/09 10:12:04;;;;;;;23.60;3.53;;;;;;;4.55;100.00;99790.06;5097059;28;20028;-75
2022/01/09 10:14:32;;;;;;;15.40;2.92;;;;;;;4.61;100.00;99775.22;5089749;28;20027;-75
2022/01/09 10:17:09;;;;;;;19.48;3.38;;;;;;;4.68;100.00;99767.53;5077604;28;20032;-75
2022/01/09 10:19:43;;;;;;;16.02;3.05;;;;;;;4.77;100.00;99781.56;5064691;28;20458;-75
2022/01/09 10:22:43;;;;;;;26.27;3.45;;;;;;;4.84;100.00;99784.84;5105755;28;20032;-75
2022/01/09 10:25:21;;;;;;;17.23;3.30;;;;;;;4.91;100.00;99784.59;5061775;28;20480;-75
2022/01/09 10:27:48;;;;;;;18.58;3.85;;;;;;;5.00;100.00;99784.88;5089934;28;20028;-76
2022/01/09 10:30:13;;;;;;;17.25;3.05;;;;;;;5.05;100.00;99788.47;5082515;27;20044;-75
2022/01/09 10:32:39;;;;;;;20.23;3.67;;;;;;;5.11;100.00;99792.84;5118721;27;20035;-74
2022/01/09 10:35:18;;;;;;;21.17;3.00;;;;;;;5.18;100.00;99783.50;5101858;27;20035;-76
2022/01/09 10:37:45;;;;;;;18.20;3.05;;;;;;;5.24;100.00;99797.00;5118405;27;20047;-75
2022/01/09 10:40:20;;;;;;;21.00;2.92;;;;;;;5.30;100.00;99792.31;5136322;27;20577;-74
2022/01/09 10:42:50;;;;;;;27.95;4.18;;;;;;;5.37;100.00;99790.09;5118239;27;20029;-75
2022/01/09 10:45:16;;;;;;;19.88;3.40;;;;;;;5.44;100.00;99790.63;5096321;27;20546;-75
2022/01/09 10:47:41;;;;;;;16.45;3.30;;;;;;;5.49;100.00;99787.03;5127493;27;20466;-75
2022/01/09 10:50:08;;;;;;;18.25;3.53;;;;;;;5.57;100.00;99790.06;5100668;27;20027;-75
2022/01/09 10:52:38;;;;;;;28.00;3.88;;;;;;;5.62;100.00;99780.94;5132816;27;20424;-75
2022/01/09 10:55:05;;;;;;;24.42;4.03;;;;;;;5.70;100.00;99782.31;5105511;27;20067;-75
2022/01/09 10:57:37;;;;;;;15.00;2.67;;;;;;;5.77;100.00;99786.44;5090950;28;20037;-75
2022/01/09 11:00:13;;;;;;;21.35;3.80;;;;;;;5.85;100.00;99784.19;5128954;27;20058;-75
2022/01/09 11:02:39;;;;;;;19.88;3.63;;;;;;;5.91;100.00;99781.16;5085494;27;20023;-75
2022/01/09 11:05:05;;;;;;;23.40;3.60;;;;;;;5.95;100.00;99779.50;5082457;27;20649;-75
2022/01/09 11:07:30;;;;;;;23.27;3.50;;;;;;;6.03;100.00;99775.34;5085141;27;20468;-75
2022/01/09 11:09:58;;;;;;;26.05;3.47;;;;;;;6.08;100.00;99769.00;5101932;27;20059;-75
2022/01/09 11:12:25;;;;;;;19.77;2.75;;;;;;;6.12;100.00;99767.31;5117275;27;20031;-75
2022/01/09 11:14:52;;;;;;;22.58;3.63;;;;;;;6.15;100.00;99762.06;5073812;27;20031;-75
2022/01/09 11:17:18;;;;;;;25.90;3.60;;;;;;;6.23;100.00;99752.38;5099841;27;20077;-75
2022/01/09 11:19:43;;;;;;;19.35;3.47;;;;;;;6.27;100.00;99753.47;5084270;27;20026;-75
2022/01/09 11:22:10;;;;;;;19.10;2.78;;;;;;;6.30;100.00;99744.63;5102149;27;20027;-76